createdAt,value
2019-03-13T00:04:12.692Z,8.70
2019-03-13T00:09:19.574Z,8.80
2019-03-13T00:14:27.230Z,8.60
2019-03-13T00:19:33.183Z,8.40
2019-03-13T00:24:40.246Z,8.20
2019-03-13T00:29:46.384Z,9.10
2019-03-13T00:34:52.844Z,9.30
2019-03-13T00:40:00.356Z,9.40
2019-03-13T00:45:07.790Z,9.20
2019-03-13T00:50:23.158Z,8.90
2019-03-13T00:55:30.205Z,8.60
2019-03-13T01:00:53.921Z,8.60
2019-03-13T01:06:04.627Z,8.50
2019-03-13T01:11:11.923Z,8.30
2019-03-13T01:16:19.240Z,8.20
2019-03-13T01:21:25.382Z,8.00
2019-03-13T01:26:31.985Z,7.90
2019-03-13T01:31:57.588Z,7.70
2019-03-13T01:37:04.747Z,7.60
2019-03-13T01:42:10.633Z,7.50
2019-03-13T01:47:16.460Z,7.50
2019-03-13T01:52:23.275Z,7.30
2019-03-13T01:57:31.154Z,7.10
2019-03-13T02:02:37.019Z,6.80
2019-03-13T02:07:43.322Z,6.80
2019-03-13T02:12:50.125Z,6.70
2019-03-13T02:17:57.313Z,6.50
2019-03-13T02:23:03.475Z,6.40
2019-03-13T02:28:09.564Z,6.20
2019-03-13T02:33:15.740Z,6.10
2019-03-13T02:38:22.515Z,6.00
2019-03-13T02:43:28.493Z,6.00
2019-03-13T02:48:37.183Z,5.90
2019-03-13T02:53:44.044Z,5.80
2019-03-13T02:58:50.306Z,5.80
2019-03-13T03:04:00.155Z,5.80
2019-03-13T03:09:09.922Z,5.70
2019-03-13T03:14:16.574Z,5.60
2019-03-13T03:19:25.153Z,5.50
2019-03-13T03:24:32.667Z,5.40
2019-03-13T03:29:40.464Z,5.30
2019-03-13T03:34:47.646Z,5.20
2019-03-13T03:39:54.618Z,5.20
2019-03-13T03:45:02.137Z,5.20
2019-03-13T03:50:10.133Z,5.10
2019-03-13T03:55:16.640Z,5.10
2019-03-13T04:00:23.212Z,5.10
2019-03-13T04:05:30.134Z,5.10
2019-03-13T04:10:37.092Z,5.00
2019-03-13T04:15:43.300Z,5.00
2019-03-13T04:20:49.674Z,5.00
2019-03-13T04:25:57.128Z,5.00
2019-03-13T04:31:02.856Z,5.10
2019-03-13T04:36:09.755Z,5.00
2019-03-13T04:41:23.412Z,5.00
2019-03-13T04:46:29.659Z,5.00
2019-03-13T04:51:36.839Z,5.00
2019-03-13T04:56:43.157Z,5.00
2019-03-13T05:01:49.424Z,5.00
2019-03-13T05:06:56.392Z,5.00
2019-03-13T05:12:03.016Z,5.00
2019-03-13T05:17:10.101Z,5.00
2019-03-13T05:22:17.175Z,5.00
2019-03-13T05:27:24.478Z,4.90
2019-03-13T05:32:31.955Z,4.90
2019-03-13T05:37:41.396Z,4.90
2019-03-13T05:42:47.717Z,4.90
2019-03-13T05:47:53.983Z,4.80
2019-03-13T05:53:01.621Z,4.80
2019-03-13T05:58:09.230Z,5.00
2019-03-13T06:03:15.705Z,5.00
2019-03-13T06:08:21.765Z,4.90
2019-03-13T06:13:28.657Z,5.00
2019-03-13T06:18:39.765Z,4.90
2019-03-13T06:23:48.281Z,4.90
2019-03-13T06:28:55.516Z,4.90
2019-03-13T06:34:03.032Z,4.90
2019-03-13T06:39:09.854Z,5.00
2019-03-13T06:44:17.094Z,5.00
2019-03-13T06:49:24.117Z,4.80
2019-03-13T06:54:31.795Z,4.70
2019-03-13T06:59:57.311Z,4.80
2019-03-13T07:05:20.593Z,4.90
2019-03-13T07:10:34.044Z,4.90
2019-03-13T07:15:42.695Z,4.90
2019-03-13T07:21:08.214Z,5.10
2019-03-13T07:26:29.680Z,5.20
2019-03-13T07:32:07.216Z,5.20
2019-03-13T07:37:23.034Z,5.20
2019-03-13T07:42:58.738Z,5.20
2019-03-13T07:48:31.162Z,5.30
2019-03-13T07:54:06.343Z,5.40
2019-03-13T07:59:35.548Z,5.40
2019-03-13T08:04:59.867Z,5.40
2019-03-13T08:10:24.932Z,5.40
2019-03-13T08:15:51.109Z,5.80
2019-03-13T08:21:16.061Z,5.90
2019-03-13T08:26:41.639Z,5.90
2019-03-13T08:31:54.208Z,5.80
2019-03-13T08:37:08.104Z,5.90
2019-03-13T08:42:35.673Z,5.80
2019-03-13T08:48:03.049Z,6.10
2019-03-13T08:53:28.865Z,6.40
2019-03-13T08:58:50.807Z,6.40
2019-03-13T09:04:08.573Z,6.20
2019-03-13T09:09:50.595Z,4.80
2019-03-13T09:14:59.622Z,4.20
2019-03-13T09:20:40.481Z,4.60
2019-03-13T09:26:14.416Z,5.00
2019-03-13T09:31:40.318Z,5.50
2019-03-13T09:43:37.143Z,5.60
2019-03-13T09:49:03.438Z,5.50
2019-03-13T09:54:27.873Z,5.30
2019-03-13T09:59:55.641Z,5.30
2019-03-13T10:05:23.727Z,5.40
2019-03-13T10:11:05.772Z,5.90
2019-03-13T10:16:30.774Z,6.20
2019-03-13T10:22:06.402Z,6.30
2019-03-13T10:27:30.643Z,6.70
2019-03-13T10:32:47.581Z,6.60
2019-03-13T10:38:13.309Z,5.80
2019-03-13T10:43:33.175Z,5.40
2019-03-13T10:49:01.074Z,5.60
2019-03-13T10:54:30.770Z,6.00
2019-03-13T11:00:09.663Z,7.00
2019-03-13T11:05:34.599Z,8.20
2019-03-13T11:10:55.289Z,8.40
2019-03-13T11:16:25.612Z,10.70
2019-03-13T11:21:46.961Z,11.60
2019-03-13T11:27:07.289Z,11.90
2019-03-13T11:32:43.136Z,12.40
2019-03-13T11:38:08.851Z,11.80
2019-03-13T11:43:35.898Z,11.40
2019-03-13T11:49:00.600Z,8.90
2019-03-13T11:54:33.258Z,8.40
2019-03-13T12:00:00.170Z,11.20
2019-03-13T12:05:47.330Z,10.30
2019-03-13T12:11:15.013Z,10.80
2019-03-13T12:16:53.532Z,10.50
2019-03-13T12:22:27.575Z,9.90
2019-03-13T12:27:45.720Z,9.20
2019-03-13T12:33:17.269Z,7.50
2019-03-13T12:38:32.693Z,5.80
2019-03-13T12:44:00.499Z,4.70
2019-03-13T12:49:27.447Z,5.70
2019-03-13T12:54:54.207Z,5.50
2019-03-13T13:00:28.273Z,5.40
2019-03-13T13:06:10.740Z,6.90
2019-03-13T13:11:42.350Z,7.00
2019-03-13T13:17:07.832Z,7.10
2019-03-13T13:22:14.632Z,6.90
2019-03-13T13:27:20.784Z,7.10
2019-03-13T13:32:26.774Z,8.00
2019-03-13T13:37:32.841Z,8.90
2019-03-13T13:42:40.025Z,8.40
2019-03-13T13:47:48.626Z,8.20
2019-03-13T13:52:55.766Z,8.10
2019-03-13T13:58:03.279Z,8.90
2019-03-13T14:03:09.756Z,8.60
2019-03-13T14:08:22.658Z,8.10
2019-03-13T14:13:34.475Z,8.60
2019-03-13T14:18:41.327Z,8.60
2019-03-13T14:23:48.585Z,8.10
2019-03-13T14:28:56.267Z,7.60
2019-03-13T14:34:05.796Z,6.30
2019-03-13T14:39:14.118Z,4.50
2019-03-13T14:44:21.765Z,5.30
2019-03-13T14:49:29.905Z,5.40
2019-03-13T14:54:36.914Z,5.40
2019-03-13T14:59:43.329Z,5.60
2019-03-13T15:04:51.047Z,6.00
2019-03-13T15:09:59.413Z,6.00
2019-03-13T15:15:06.151Z,6.20
2019-03-13T15:20:15.033Z,5.70
2019-03-13T15:25:21.316Z,5.40
2019-03-13T15:30:27.500Z,5.50
2019-03-13T15:35:34.284Z,5.70
2019-03-13T15:40:41.216Z,5.80
2019-03-13T15:45:49.034Z,6.40
2019-03-13T15:50:56.620Z,6.40
2019-03-13T15:56:09.374Z,6.40
2019-03-13T16:01:17.396Z,6.50
2019-03-13T16:06:24.061Z,6.50
2019-03-13T16:11:32.236Z,6.00
2019-03-13T16:16:37.997Z,5.80
2019-03-13T16:21:44.383Z,5.80
2019-03-13T16:26:50.466Z,5.80
2019-03-13T16:31:56.667Z,5.70
2019-03-13T16:37:02.602Z,5.50
2019-03-13T16:42:08.654Z,5.30
2019-03-13T16:47:15.398Z,5.10
2019-03-13T16:52:21.805Z,4.90
2019-03-13T16:57:28.216Z,4.70
2019-03-13T17:02:36.006Z,4.60
2019-03-13T17:07:43.366Z,4.40
2019-03-13T17:13:00.452Z,4.50
2019-03-13T17:18:10.954Z,4.60
2019-03-13T17:23:18.581Z,4.70
2019-03-13T17:28:27.229Z,4.70
2019-03-13T17:33:35.235Z,4.40
2019-03-13T17:38:48.421Z,4.40
2019-03-13T17:44:01.469Z,4.30
2019-03-13T17:49:08.554Z,4.30
2019-03-13T17:54:14.377Z,4.20
2019-03-13T17:59:20.710Z,4.10
2019-03-13T18:04:27.577Z,4.20
2019-03-13T18:09:36.907Z,4.20
2019-03-13T18:14:43.965Z,4.40
2019-03-13T18:19:50.424Z,4.40
2019-03-13T18:25:56.971Z,4.40
2019-03-13T18:31:02.985Z,4.50
2019-03-13T18:36:09.955Z,4.40
2019-03-13T18:41:17.616Z,4.50
2019-03-13T18:46:24.134Z,4.50
2019-03-13T18:51:31.485Z,4.50
2019-03-13T18:56:38.667Z,4.50
2019-03-13T19:01:45.993Z,4.50
2019-03-13T19:06:53.291Z,4.50
2019-03-13T19:11:59.590Z,4.50
2019-03-13T19:17:05.565Z,4.50
2019-03-13T19:22:12.818Z,4.50
2019-03-13T19:27:18.748Z,4.50
2019-03-13T19:32:24.758Z,4.50
2019-03-13T19:37:30.845Z,4.50
2019-03-13T19:42:38.027Z,4.50
2019-03-13T19:47:44.271Z,4.50
2019-03-13T19:52:50.128Z,4.70
2019-03-13T19:57:56.261Z,4.90
2019-03-13T20:03:02.559Z,4.90
2019-03-13T20:08:09.046Z,4.90
2019-03-13T20:13:15.300Z,4.90
2019-03-13T20:18:21.506Z,4.80
2019-03-13T20:23:27.935Z,4.80
2019-03-13T20:28:35.892Z,4.80
2019-03-13T20:33:43.060Z,4.80
2019-03-13T20:38:50.485Z,4.90
2019-03-13T20:43:57.899Z,4.90
2019-03-13T20:49:05.328Z,4.80
2019-03-13T20:54:11.548Z,4.80
2019-03-13T20:59:18.739Z,4.80
2019-03-13T21:04:25.038Z,4.90
2019-03-13T21:09:31.137Z,5.00
2019-03-13T21:14:37.846Z,5.00
2019-03-13T21:19:44.389Z,4.80
2019-03-13T21:24:51.600Z,4.50
2019-03-13T21:29:57.999Z,4.30
2019-03-13T21:35:04.410Z,4.10
2019-03-13T21:40:11.064Z,4.10
2019-03-13T21:45:22.957Z,4.10
2019-03-13T21:50:26.643Z,4.20
2019-03-13T21:55:34.976Z,4.30
2019-03-13T22:00:41.930Z,4.20
2019-03-13T22:05:48.866Z,4.20
2019-03-13T22:10:55.627Z,4.20
2019-03-13T22:16:02.921Z,4.20
2019-03-13T22:21:09.585Z,4.10
2019-03-13T22:26:16.729Z,4.10
2019-03-13T22:31:24.303Z,4.10
2019-03-13T22:36:32.897Z,3.90
2019-03-13T22:41:40.363Z,3.90
2019-03-13T22:46:50.192Z,3.80
2019-03-13T22:51:56.948Z,3.80
2019-03-13T22:57:04.293Z,3.80
2019-03-13T23:02:12.567Z,3.80
2019-03-13T23:07:18.519Z,3.80
2019-03-13T23:12:24.706Z,3.90
2019-03-13T23:17:31.752Z,3.80
2019-03-13T23:22:38.712Z,3.50
2019-03-13T23:27:46.515Z,3.50
2019-03-13T23:32:53.269Z,3.60
2019-03-13T23:38:00.580Z,3.60
2019-03-13T23:43:08.807Z,3.50
2019-03-13T23:48:15.835Z,3.50
2019-03-13T23:53:24.830Z,3.60
2019-03-13T23:58:31.896Z,3.60
